sensor_id;sensor_type;location;lat;lon;timestamp;pressure;altitude;pressure_sealevel;temperature;humidity
12219;BME280;6172;42.646;23.344;2022-12-18T00:02:13;95350.47;;;5.27;100.00
12219;BME280;6172;42.646;23.344;2022-12-18T00:04:40;95369.19;;;5.13;100.00
12219;BME280;6172;42.646;23.344;2022-12-18T00:07:06;95367.97;;;5.11;100.00
12219;BME280;6172;42.646;23.344;2022-12-18T00:09:33;95367.88;;;5.04;100.00
12219;BME280;6172;42.646;23.344;2022-12-18T00:12:00;95371.44;;;5.11;100.00
12219;BME280;6172;42.646;23.344;2022-12-18T00:14:31;95382.47;;;4.99;100.00
12219;BME280;6172;42.646;23.344;2022-12-18T00:16:58;95377.94;;;5.07;100.00
12219;BME280;6172;42.646;23.344;2022-12-18T00:19:26;95383.22;;;5.00;100.00
12219;BME280;6172;42.646;23.344;2022-12-18T00:21:53;95386.09;;;5.10;100.00
12219;BME280;6172;42.646;23.344;2022-12-18T00:24:20;95390.34;;;5.11;100.00
12219;BME280;6172;42.646;23.344;2022-12-18T00:26:47;95401.72;;;4.98;100.00
12219;BME280;6172;42.646;23.344;2022-12-18T00:29:14;95396.00;;;5.03;100.00
12219;BME280;6172;42.646;23.344;2022-12-18T00:31:43;95397.09;;;4.98;100.00
12219;BME280;6172;42.646;23.344;2022-12-18T00:34:10;95397.88;;;4.99;100.00
12219;BME280;6172;42.646;23.344;2022-12-18T00:36:38;95402.00;;;4.93;100.00
12219;BME280;6172;42.646;23.344;2022-12-18T00:39:06;95393.50;;;4.91;100.00
12219;BME280;6172;42.646;23.344;2022-12-18T00:41:33;95404.66;;;4.89;100.00
12219;BME280;6172;42.646;23.344;2022-12-18T00:44:18;95408.13;;;4.90;100.00
12219;BME280;6172;42.646;23.344;2022-12-18T00:46:47;95400.59;;;4.76;100.00
12219;BME280;6172;42.646;23.344;2022-12-18T00:49:15;95411.91;;;4.63;100.00
12219;BME280;6172;42.646;23.344;2022-12-18T00:51:42;95403.69;;;4.78;100.00
12219;BME280;6172;42.646;23.344;2022-12-18T00:54:09;95416.00;;;4.76;100.00
12219;BME280;6172;42.646;23.344;2022-12-18T00:56:38;95420.59;;;4.75;100.00
12219;BME280;6172;42.646;23.344;2022-12-18T00:59:05;95417.41;;;4.70;100.00
12219;BME280;6172;42.646;23.344;2022-12-18T01:01:33;95421.97;;;4.66;100.00
12219;BME280;6172;42.646;23.344;2022-12-18T01:04:02;95429.84;;;4.74;100.00
12219;BME280;6172;42.646;23.344;2022-12-18T01:06:30;95423.25;;;4.72;100.00
12219;BME280;6172;42.646;23.344;2022-12-18T01:08:57;95427.50;;;4.73;100.00
12219;BME280;6172;42.646;23.344;2022-12-18T01:11:24;95435.78;;;4.61;100.00
12219;BME280;6172;42.646;23.344;2022-12-18T01:13:51;95447.66;;;4.56;100.00
12219;BME280;6172;42.646;23.344;2022-12-18T01:16:19;95442.75;;;4.62;100.00
12219;BME280;6172;42.646;23.344;2022-12-18T01:18:46;95438.53;;;4.64;100.00
12219;BME280;6172;42.646;23.344;2022-12-18T01:21:16;95447.00;;;4.44;100.00
12219;BME280;6172;42.646;23.344;2022-12-18T01:23:46;95443.91;;;4.42;100.00
12219;BME280;6172;42.646;23.344;2022-12-18T01:26:14;95442.13;;;4.30;100.00
12219;BME280;6172;42.646;23.344;2022-12-18T01:28:42;95449.78;;;4.28;100.00
12219;BME280;6172;42.646;23.344;2022-12-18T01:31:16;95451.63;;;4.24;100.00
12219;BME280;6172;42.646;23.344;2022-12-18T01:33:44;95450.69;;;4.17;100.00
12219;BME280;6172;42.646;23.344;2022-12-18T01:36:23;95447.72;;;4.22;100.00
12219;BME280;6172;42.646;23.344;2022-12-18T01:38:51;95458.19;;;4.08;100.00
12219;BME280;6172;42.646;23.344;2022-12-18T01:41:21;95452.53;;;4.13;100.00
12219;BME280;6172;42.646;23.344;2022-12-18T01:43:52;95456.91;;;4.02;100.00
12219;BME280;6172;42.646;23.344;2022-12-18T01:46:21;95463.66;;;3.77;100.00
12219;BME280;6172;42.646;23.344;2022-12-18T01:48:51;95460.78;;;3.85;100.00
12219;BME280;6172;42.646;23.344;2022-12-18T01:51:20;95466.50;;;3.84;100.00
12219;BME280;6172;42.646;23.344;2022-12-18T01:53:48;95455.88;;;3.72;100.00
12219;BME280;6172;42.646;23.344;2022-12-18T01:56:16;95452.28;;;3.68;100.00
12219;BME280;6172;42.646;23.344;2022-12-18T01:58:50;95469.25;;;3.68;100.00
12219;BME280;6172;42.646;23.344;2022-12-18T02:01:20;95462.38;;;3.71;100.00
12219;BME280;6172;42.646;23.344;2022-12-18T02:03:48;95478.69;;;3.78;100.00
12219;BME280;6172;42.646;23.344;2022-12-18T02:06:18;95453.63;;;3.58;100.00
12219;BME280;6172;42.646;23.344;2022-12-18T02:09:01;95469.97;;;3.50;100.00
12219;BME280;6172;42.646;23.344;2022-12-18T02:11:40;95480.22;;;3.60;100.00
12219;BME280;6172;42.646;23.344;2022-12-18T02:14:17;95475.53;;;3.57;100.00
12219;BME280;6172;42.646;23.344;2022-12-18T02:16:51;95479.34;;;3.56;100.00
12219;BME280;6172;42.646;23.344;2022-12-18T02:19:34;95483.59;;;3.57;100.00
12219;BME280;6172;42.646;23.344;2022-12-18T02:22:14;95492.13;;;3.59;100.00
12219;BME280;6172;42.646;23.344;2022-12-18T02:24:58;95483.34;;;3.62;100.00
12219;BME280;6172;42.646;23.344;2022-12-18T02:27:29;95488.31;;;3.60;100.00
12219;BME280;6172;42.646;23.344;2022-12-18T02:29:59;95486.81;;;3.62;100.00
12219;BME280;6172;42.646;23.344;2022-12-18T02:32:30;95482.13;;;3.59;100.00
12219;BME280;6172;42.646;23.344;2022-12-18T02:34:59;95490.66;;;3.61;100.00
12219;BME280;6172;42.646;23.344;2022-12-18T02:37:30;95498.06;;;3.49;100.00
12219;BME280;6172;42.646;23.344;2022-12-18T02:39:59;95501.63;;;3.53;100.00
12219;BME280;6172;42.646;23.344;2022-12-18T02:42:28;95497.53;;;3.59;100.00
12219;BME280;6172;42.646;23.344;2022-12-18T02:44:55;95502.75;;;3.52;100.00
12219;BME280;6172;42.646;23.344;2022-12-18T02:47:24;95507.41;;;3.55;100.00
12219;BME280;6172;42.646;23.344;2022-12-18T02:49:57;95507.00;;;3.53;100.00
12219;BME280;6172;42.646;23.344;2022-12-18T02:52:31;95499.50;;;3.46;100.00
12219;BME280;6172;42.646;23.344;2022-12-18T02:55:05;95501.69;;;3.41;100.00
12219;BME280;6172;42.646;23.344;2022-12-18T02:57:40;95503.28;;;3.42;100.00
12219;BME280;6172;42.646;23.344;2022-12-18T03:00:13;95505.78;;;3.34;100.00
12219;BME280;6172;42.646;23.344;2022-12-18T03:02:45;95502.03;;;3.23;100.00
12219;BME280;6172;42.646;23.344;2022-12-18T03:05:16;95512.19;;;3.14;100.00
12219;BME280;6172;42.646;23.344;2022-12-18T03:07:49;95516.19;;;3.20;100.00
12219;BME280;6172;42.646;23.344;2022-12-18T03:10:20;95519.84;;;3.12;100.00
12219;BME280;6172;42.646;23.344;2022-12-18T03:12:54;95534.03;;;3.25;100.00
12219;BME280;6172;42.646;23.344;2022-12-18T03:15:28;95521.59;;;3.20;100.00
12219;BME280;6172;42.646;23.344;2022-12-18T03:17:59;95519.06;;;3.27;100.00
12219;BME280;6172;42.646;23.344;2022-12-18T03:20:30;95518.38;;;3.15;100.00
12219;BME280;6172;42.646;23.344;2022-12-18T03:23:02;95523.16;;;3.21;100.00
12219;BME280;6172;42.646;23.344;2022-12-18T03:25:31;95524.22;;;3.17;100.00
12219;BME280;6172;42.646;23.344;2022-12-18T03:28:03;95521.94;;;3.19;100.00
12219;BME280;6172;42.646;23.344;2022-12-18T03:30:36;95526.63;;;3.22;100.00
12219;BME280;6172;42.646;23.344;2022-12-18T03:33:08;95528.97;;;3.08;100.00
12219;BME280;6172;42.646;23.344;2022-12-18T03:35:39;95545.94;;;3.24;100.00
12219;BME280;6172;42.646;23.344;2022-12-18T03:38:08;95549.31;;;3.21;100.00
12219;BME280;6172;42.646;23.344;2022-12-18T03:40:43;95549.59;;;3.32;100.00
12219;BME280;6172;42.646;23.344;2022-12-18T03:43:17;95546.13;;;3.47;100.00
12219;BME280;6172;42.646;23.344;2022-12-18T03:45:52;95540.97;;;3.26;100.00
12219;BME280;6172;42.646;23.344;2022-12-18T03:48:28;95558.28;;;3.25;100.00
12219;BME280;6172;42.646;23.344;2022-12-18T03:50:57;95564.06;;;3.11;100.00
12219;BME280;6172;42.646;23.344;2022-12-18T03:53:33;95567.00;;;3.06;100.00
12219;BME280;6172;42.646;23.344;2022-12-18T03:56:04;95585.72;;;3.15;100.00
12219;BME280;6172;42.646;23.344;2022-12-18T03:58:35;95568.06;;;3.17;100.00
12219;BME280;6172;42.646;23.344;2022-12-18T04:01:09;95569.84;;;3.25;100.00
12219;BME280;6172;42.646;23.344;2022-12-18T04:03:37;95565.28;;;2.98;100.00
12219;BME280;6172;42.646;23.344;2022-12-18T04:06:06;95574.56;;;3.01;100.00
12219;BME280;6172;42.646;23.344;2022-12-18T04:08:34;95572.63;;;3.01;100.00
12219;BME280;6172;42.646;23.344;2022-12-18T04:11:02;95574.81;;;3.11;100.00
12219;BME280;6172;42.646;23.344;2022-12-18T04:13:32;95579.69;;;3.06;100.00
12219;BME280;6172;42.646;23.344;2022-12-18T04:16:01;95579.88;;;3.13;100.00
12219;BME280;6172;42.646;23.344;2022-12-18T04:18:28;95576.66;;;3.07;100.00
12219;BME280;6172;42.646;23.344;2022-12-18T04:20:54;95590.38;;;3.02;100.00
12219;BME280;6172;42.646;23.344;2022-12-18T04:23:21;95594.78;;;2.95;100.00
12219;BME280;6172;42.646;23.344;2022-12-18T04:25:48;95589.06;;;2.96;100.00
12219;BME280;6172;42.646;23.344;2022-12-18T04:28:15;95588.38;;;2.99;100.00
12219;BME280;6172;42.646;23.344;2022-12-18T04:30:42;95583.31;;;2.98;100.00
12219;BME280;6172;42.646;23.344;2022-12-18T04:33:11;95596.00;;;2.97;100.00
12219;BME280;6172;42.646;23.344;2022-12-18T04:35:41;95609.38;;;2.94;100.00
12219;BME280;6172;42.646;23.344;2022-12-18T04:38:08;95615.34;;;3.15;100.00
12219;BME280;6172;42.646;23.344;2022-12-18T04:40:36;95611.59;;;3.04;100.00
12219;BME280;6172;42.646;23.344;2022-12-18T04:43:04;95610.13;;;2.94;100.00
12219;BME280;6172;42.646;23.344;2022-12-18T04:45:31;95614.00;;;2.81;100.00
12219;BME280;6172;42.646;23.344;2022-12-18T04:47:58;95628.19;;;2.66;100.00
12219;BME280;6172;42.646;23.344;2022-12-18T04:50:27;95629.19;;;2.74;100.00
12219;BME280;6172;42.646;23.344;2022-12-18T04:52:54;95622.81;;;2.66;100.00
12219;BME280;6172;42.646;23.344;2022-12-18T04:55:24;95622.00;;;2.66;100.00
12219;BME280;6172;42.646;23.344;2022-12-18T04:57:51;95635.25;;;2.71;100.00
12219;BME280;6172;42.646;23.344;2022-12-18T05:00:18;95631.22;;;2.65;100.00
12219;BME280;6172;42.646;23.344;2022-12-18T05:02:45;95636.06;;;2.59;100.00
12219;BME280;6172;42.646;23.344;2022-12-18T05:05:12;95633.31;;;2.71;100.00
12219;BME280;6172;42.646;23.344;2022-12-18T05:07:40;95637.41;;;2.65;100.00
12219;BME280;6172;42.646;23.344;2022-12-18T05:10:08;95632.00;;;2.65;100.00
12219;BME280;6172;42.646;23.344;2022-12-18T05:12:35;95637.16;;;2.70;100.00
12219;BME280;6172;42.646;23.344;2022-12-18T05:15:23;95649.94;;;2.61;100.00
12219;BME280;6172;42.646;23.344;2022-12-18T05:17:51;95638.09;;;2.50;100.00
12219;BME280;6172;42.646;23.344;2022-12-18T05:20:18;95639.91;;;2.46;100.00
12219;BME280;6172;42.646;23.344;2022-12-18T05:22:46;95652.88;;;2.56;100.00
12219;BME280;6172;42.646;23.344;2022-12-18T05:25:14;95654.44;;;2.57;100.00
12219;BME280;6172;42.646;23.344;2022-12-18T05:27:41;95651.41;;;2.47;100.00
12219;BME280;6172;42.646;23.344;2022-12-18T05:30:10;95662.63;;;2.49;100.00
12219;BME280;6172;42.646;23.344;2022-12-18T05:32:37;95675.88;;;2.54;100.00
12219;BME280;6172;42.646;23.344;2022-12-18T05:35:06;95687.19;;;2.59;100.00
12219;BME280;6172;42.646;23.344;2022-12-18T05:37:33;95684.63;;;2.51;100.00
12219;BME280;6172;42.646;23.344;2022-12-18T05:40:03;95682.28;;;2.49;100.00
12219;BME280;6172;42.646;23.344;2022-12-18T05:42:32;95683.84;;;2.50;100.00
12219;BME280;6172;42.646;23.344;2022-12-18T05:44:59;95684.63;;;2.51;100.00
12219;BME280;6172;42.646;23.344;2022-12-18T05:47:28;95682.47;;;2.56;100.00
12219;BME280;6172;42.646;23.344;2022-12-18T05:49:55;95686.69;;;2.81;100.00
12219;BME280;6172;42.646;23.344;2022-12-18T05:52:22;95686.47;;;2.86;100.00
12219;BME280;6172;42.646;23.344;2022-12-18T05:54:49;95676.19;;;2.64;100.00
12219;BME280;6172;42.646;23.344;2022-12-18T05:57:17;95684.03;;;2.69;100.00
12219;BME280;6172;42.646;23.344;2022-12-18T05:59:44;95688.53;;;2.65;100.00
12219;BME280;6172;42.646;23.344;2022-12-18T06:02:11;95689.63;;;2.64;100.00
12219;BME280;6172;42.646;23.344;2022-12-18T06:04:38;95697.28;;;2.62;100.00
12219;BME280;6172;42.646;23.344;2022-12-18T06:07:05;95706.03;;;2.47;100.00
12219;BME280;6172;42.646;23.344;2022-12-18T06:09:33;95700.44;;;2.40;100.00
12219;BME280;6172;42.646;23.344;2022-12-18T06:12:00;95702.44;;;2.43;100.00
12219;BME280;6172;42.646;23.344;2022-12-18T06:14:29;95695.03;;;2.40;100.00
12219;BME280;6172;42.646;23.344;2022-12-18T06:16:55;95703.69;;;2.34;100.00
12219;BME280;6172;42.646;23.344;2022-12-18T06:19:22;95699.31;;;2.41;100.00
12219;BME280;6172;42.646;23.344;2022-12-18T06:21:49;95713.19;;;2.31;100.00
12219;BME280;6172;42.646;23.344;2022-12-18T06:24:16;95713.66;;;2.33;100.00
12219;BME280;6172;42.646;23.344;2022-12-18T06:26:43;95708.94;;;2.30;100.00
12219;BME280;6172;42.646;23.344;2022-12-18T06:29:10;95715.78;;;2.40;100.00
12219;BME280;6172;42.646;23.344;2022-12-18T06:31:38;95706.16;;;2.39;100.00
12219;BME280;6172;42.646;23.344;2022-12-18T06:34:06;95720.81;;;2.53;100.00
12219;BME280;6172;42.646;23.344;2022-12-18T06:36:32;95727.31;;;2.64;100.00
12219;BME280;6172;42.646;23.344;2022-12-18T06:39:00;95730.25;;;2.59;100.00
12219;BME280;6172;42.646;23.344;2022-12-18T06:41:27;95735.63;;;2.59;100.00
12219;BME280;6172;42.646;23.344;2022-12-18T06:43:54;95734.38;;;2.69;100.00
12219;BME280;6172;42.646;23.344;2022-12-18T06:46:21;95740.34;;;2.62;100.00
12219;BME280;6172;42.646;23.344;2022-12-18T06:48:50;95743.78;;;2.63;100.00
12219;BME280;6172;42.646;23.344;2022-12-18T06:51:19;95751.53;;;2.64;100.00
12219;BME280;6172;42.646;23.344;2022-12-18T06:53:46;95756.00;;;2.84;100.00
12219;BME280;6172;42.646;23.344;2022-12-18T06:56:13;95747.63;;;2.62;100.00
12219;BME280;6172;42.646;23.344;2022-12-18T06:58:40;95754.47;;;2.59;100.00
12219;BME280;6172;42.646;23.344;2022-12-18T07:01:09;95753.13;;;2.53;100.00
12219;BME280;6172;42.646;23.344;2022-12-18T07:03:36;95764.22;;;2.64;100.00
12219;BME280;6172;42.646;23.344;2022-12-18T07:06:05;95763.88;;;2.53;100.00
12219;BME280;6172;42.646;23.344;2022-12-18T07:08:32;95751.09;;;2.50;100.00
12219;BME280;6172;42.646;23.344;2022-12-18T07:11:03;95764.44;;;2.59;100.00
12219;BME280;6172;42.646;23.344;2022-12-18T07:13:30;95764.09;;;2.60;100.00
12219;BME280;6172;42.646;23.344;2022-12-18T07:16:03;95756.03;;;2.60;100.00
12219;BME280;6172;42.646;23.344;2022-12-18T07:18:30;95769.63;;;2.64;100.00
12219;BME280;6172;42.646;23.344;2022-12-18T07:20:57;95760.16;;;2.70;100.00
12219;BME280;6172;42.646;23.344;2022-12-18T07:23:25;95770.84;;;2.66;100.00
12219;BME280;6172;42.646;23.344;2022-12-18T07:25:52;95763.88;;;2.65;100.00
12219;BME280;6172;42.646;23.344;2022-12-18T07:28:19;95760.63;;;2.60;100.00
12219;BME280;6172;42.646;23.344;2022-12-18T07:30:46;95761.41;;;2.72;100.00
12219;BME280;6172;42.646;23.344;2022-12-18T07:33:13;95780.47;;;2.79;100.00
12219;BME280;6172;42.646;23.344;2022-12-18T07:35:39;95786.06;;;2.74;100.00
12219;BME280;6172;42.646;23.344;2022-12-18T07:38:06;95779.25;;;2.65;100.00
12219;BME280;6172;42.646;23.344;2022-12-18T07:40:35;95785.75;;;2.64;100.00
12219;BME280;6172;42.646;23.344;2022-12-18T07:43:02;95789.00;;;2.69;100.00
12219;BME280;6172;42.646;23.344;2022-12-18T07:45:32;95790.44;;;2.67;100.00
12219;BME280;6172;42.646;23.344;2022-12-18T07:47:58;95790.56;;;2.70;100.00
12219;BME280;6172;42.646;23.344;2022-12-18T07:50:31;95787.09;;;2.70;100.00
12219;BME280;6172;42.646;23.344;2022-12-18T07:53:00;95788.00;;;2.62;100.00
12219;BME280;6172;42.646;23.344;2022-12-18T07:55:42;95797.72;;;2.78;100.00
12219;BME280;6172;42.646;23.344;2022-12-18T07:58:24;95792.59;;;2.73;100.00
12219;BME280;6172;42.646;23.344;2022-12-18T08:01:19;95800.88;;;2.68;100.00
12219;BME280;6172;42.646;23.344;2022-12-18T08:03:50;95817.47;;;2.70;100.00
12219;BME280;6172;42.646;23.344;2022-12-18T08:06:24;95809.75;;;2.69;100.00
12219;BME280;6172;42.646;23.344;2022-12-18T08:08:53;95811.19;;;2.54;100.00
12219;BME280;6172;42.646;23.344;2022-12-18T08:11:26;95820.50;;;2.57;100.00
12219;BME280;6172;42.646;23.344;2022-12-18T08:13:57;95819.06;;;2.59;100.00
12219;BME280;6172;42.646;23.344;2022-12-18T08:16:26;95834.06;;;2.60;100.00
12219;BME280;6172;42.646;23.344;2022-12-18T08:18:55;95835.75;;;2.65;100.00
12219;BME280;6172;42.646;23.344;2022-12-18T08:21:24;95844.16;;;2.63;100.00
12219;BME280;6172;42.646;23.344;2022-12-18T08:23:55;95857.94;;;2.50;100.00
12219;BME280;6172;42.646;23.344;2022-12-18T08:26:26;95856.25;;;2.57;100.00
12219;BME280;6172;42.646;23.344;2022-12-18T08:28:54;95849.66;;;2.67;100.00
12219;BME280;6172;42.646;23.344;2022-12-18T08:31:21;95861.22;;;2.55;100.00
12219;BME280;6172;42.646;23.344;2022-12-18T08:33:49;95849.53;;;2.51;100.00
12219;BME280;6172;42.646;23.344;2022-12-18T08:36:16;95852.13;;;2.48;100.00
12219;BME280;6172;42.646;23.344;2022-12-18T08:38:44;95856.84;;;2.51;100.00
12219;BME280;6172;42.646;23.344;2022-12-18T08:41:13;95860.94;;;2.36;100.00
12219;BME280;6172;42.646;23.344;2022-12-18T08:43:42;95853.78;;;2.40;100.00
12219;BME280;6172;42.646;23.344;2022-12-18T08:46:25;95861.19;;;2.43;100.00
12219;BME280;6172;42.646;23.344;2022-12-18T08:48:54;95865.66;;;2.51;100.00
12219;BME280;6172;42.646;23.344;2022-12-18T08:51:21;95862.53;;;2.61;100.00
12219;BME280;6172;42.646;23.344;2022-12-18T08:53:48;95867.38;;;2.44;100.00
12219;BME280;6172;42.646;23.344;2022-12-18T08:56:15;95870.84;;;2.56;100.00
12219;BME280;6172;42.646;23.344;2022-12-18T08:58:44;95856.94;;;2.78;100.00
12219;BME280;6172;42.646;23.344;2022-12-18T09:01:12;95864.59;;;2.76;100.00
12219;BME280;6172;42.646;23.344;2022-12-18T09:03:39;95861.69;;;2.69;100.00
12219;BME280;6172;42.646;23.344;2022-12-18T09:06:07;95864.69;;;2.68;100.00
12219;BME280;6172;42.646;23.344;2022-12-18T09:08:39;95854.72;;;2.80;100.00
12219;BME280;6172;42.646;23.344;2022-12-18T09:11:13;95852.94;;;2.72;100.00
12219;BME280;6172;42.646;23.344;2022-12-18T09:13:40;95859.75;;;2.70;100.00
12219;BME280;6172;42.646;23.344;2022-12-18T09:16:09;95847.56;;;2.72;100.00
12219;BME280;6172;42.646;23.344;2022-12-18T09:18:36;95855.16;;;2.70;100.00
12219;BME280;6172;42.646;23.344;2022-12-18T09:21:09;95854.69;;;2.68;100.00
12219;BME280;6172;42.646;23.344;2022-12-18T09:23:36;95864.91;;;2.63;100.00
12219;BME280;6172;42.646;23.344;2022-12-18T09:26:04;95853.28;;;2.71;100.00
12219;BME280;6172;42.646;23.344;2022-12-18T09:28:32;95861.56;;;2.78;100.00
12219;BME280;6172;42.646;23.344;2022-12-18T09:31:04;95849.78;;;2.70;100.00
12219;BME280;6172;42.646;23.344;2022-12-18T09:33:35;95855.63;;;2.72;100.00
12219;BME280;6172;42.646;23.344;2022-12-18T09:36:04;95861.22;;;2.91;100.00
12219;BME280;6172;42.646;23.344;2022-12-18T09:38:31;95864.16;;;2.86;100.00
12219;BME280;6172;42.646;23.344;2022-12-18T09:41:01;95864.16;;;2.86;100.00
12219;BME280;6172;42.646;23.344;2022-12-18T09:43:36;95861.25;;;2.79;100.00
12219;BME280;6172;42.646;23.344;2022-12-18T09:46:11;95865.25;;;2.73;100.00
12219;BME280;6172;42.646;23.344;2022-12-18T09:48:50;95856.63;;;2.80;100.00
12219;BME280;6172;42.646;23.344;2022-12-18T09:51:21;95856.28;;;2.81;100.00
12219;BME280;6172;42.646;23.344;2022-12-18T09:53:52;95852.72;;;2.89;100.00
12219;BME280;6172;42.646;23.344;2022-12-18T09:56:22;95851.03;;;2.97;100.00
12219;BME280;6172;42.646;23.344;2022-12-18T09:59:00;95853.94;;;2.92;100.00
12219;BME280;6172;42.646;23.344;2022-12-18T10:01:28;95849.66;;;3.27;100.00
12219;BME280;6172;42.646;23.344;2022-12-18T10:03:57;95853.34;;;3.34;100.00
12219;BME280;6172;42.646;23.344;2022-12-18T10:06:32;95851.78;;;3.21;100.00
12219;BME280;6172;42.646;23.344;2022-12-18T10:09:05;95855.72;;;3.24;100.00
12219;BME280;6172;42.646;23.344;2022-12-18T10:11:42;95857.75;;;3.27;100.00
12219;BME280;6172;42.646;23.344;2022-12-18T10:14:17;95849.75;;;3.30;100.00
12219;BME280;6172;42.646;23.344;2022-12-18T10:16:53;95857.16;;;3.33;100.00
12219;BME280;6172;42.646;23.344;2022-12-18T10:19:39;95852.81;;;3.17;100.00
12219;BME280;6172;42.646;23.344;2022-12-18T10:22:21;95859.78;;;3.06;100.00
12219;BME280;6172;42.646;23.344;2022-12-18T10:24:55;95857.88;;;3.18;100.00
12219;BME280;6172;42.646;23.344;2022-12-18T10:27:26;95862.47;;;3.06;100.00
12219;BME280;6172;42.646;23.344;2022-12-18T10:29:54;95863.03;;;3.23;100.00
12219;BME280;6172;42.646;23.344;2022-12-18T10:32:23;95854.38;;;3.18;100.00
12219;BME280;6172;42.646;23.344;2022-12-18T10:34:53;95852.03;;;3.04;100.00
12219;BME280;6172;42.646;23.344;2022-12-18T10:37:24;95855.19;;;3.18;100.00
12219;BME280;6172;42.646;23.344;2022-12-18T10:40:08;95854.94;;;2.87;100.00
12219;BME280;6172;42.646;23.344;2022-12-18T10:42:36;95854.38;;;3.06;100.00
12219;BME280;6172;42.646;23.344;2022-12-18T10:45:09;95842.50;;;2.95;100.00
12219;BME280;6172;42.646;23.344;2022-12-18T10:47:37;95841.69;;;2.94;100.00
12219;BME280;6172;42.646;23.344;2022-12-18T10:50:19;95850.72;;;2.98;100.00
12219;BME280;6172;42.646;23.344;2022-12-18T10:52:54;95850.72;;;2.98;100.00
12219;BME280;6172;42.646;23.344;2022-12-18T10:55:24;95849.56;;;2.99;100.00
12219;BME280;6172;42.646;23.344;2022-12-18T10:58:13;95841.72;;;3.06;100.00
12219;BME280;6172;42.646;23.344;2022-12-18T11:00:42;95843.28;;;2.83;100.00
12219;BME280;6172;42.646;23.344;2022-12-18T11:03:30;95848.00;;;2.86;100.00
12219;BME280;6172;42.646;23.344;2022-12-18T11:06:07;95845.41;;;2.90;100.00
12219;BME280;6172;42.646;23.344;2022-12-18T11:08:35;95842.97;;;2.97;100.00
12219;BME280;6172;42.646;23.344;2022-12-18T11:11:02;95843.97;;;2.92;100.00
12219;BME280;6172;42.646;23.344;2022-12-18T11:13:31;95851.81;;;3.09;100.00
12219;BME280;6172;42.646;23.344;2022-12-18T11:15:58;95836.22;;;2.91;100.00
12219;BME280;6172;42.646;23.344;2022-12-18T11:18:27;95837.91;;;2.95;100.00
12219;BME280;6172;42.646;23.344;2022-12-18T11:20:57;95843.16;;;2.92;100.00
12219;BME280;6172;42.646;23.344;2022-12-18T11:23:29;95844.41;;;2.94;100.00
12219;BME280;6172;42.646;23.344;2022-12-18T11:25:58;95846.88;;;2.87;100.00
12219;BME280;6172;42.646;23.344;2022-12-18T11:28:35;95841.50;;;2.99;100.00
12219;BME280;6172;42.646;23.344;2022-12-18T11:31:24;95843.72;;;3.09;100.00
12219;BME280;6172;42.646;23.344;2022-12-18T11:33:57;95851.69;;;3.06;100.00
12219;BME280;6172;42.646;23.344;2022-12-18T11:36:25;95843.19;;;3.04;100.00
12219;BME280;6172;42.646;23.344;2022-12-18T11:38:59;95840.16;;;3.05;100.00
12219;BME280;6172;42.646;23.344;2022-12-18T11:41:30;95851.69;;;3.18;100.00
12219;BME280;6172;42.646;23.344;2022-12-18T11:44:16;95845.16;;;3.19;100.00
12219;BME280;6172;42.646;23.344;2022-12-18T11:46:49;95846.88;;;2.99;100.00
12219;BME280;6172;42.646;23.344;2022-12-18T11:49:21;95848.91;;;3.02;100.00
12219;BME280;6172;42.646;23.344;2022-12-18T11:51:53;95848.00;;;3.10;100.00
12219;BME280;6172;42.646;23.344;2022-12-18T11:54:23;95848.31;;;3.21;100.00
12219;BME280;6172;42.646;23.344;2022-12-18T11:56:53;95851.34;;;3.19;100.00
12219;BME280;6172;42.646;23.344;2022-12-18T11:59:30;95849.56;;;3.11;100.00
12219;BME280;6172;42.646;23.344;2022-12-18T12:02:13;95844.41;;;3.06;100.00
12219;BME280;6172;42.646;23.344;2022-12-18T12:04:58;95846.84;;;3.11;100.00
12219;BME280;6172;42.646;23.344;2022-12-18T12:07:38;95848.31;;;3.21;100.00
12219;BME280;6172;42.646;23.344;2022-12-18T12:10:24;95848.66;;;3.19;100.00
12219;BME280;6172;42.646;23.344;2022-12-18T12:13:06;95850.69;;;3.22;100.00
12219;BME280;6172;42.646;23.344;2022-12-18T12:15:42;95847.66;;;3.24;100.00
12219;BME280;6172;42.646;23.344;2022-12-18T12:18:24;95851.34;;;3.32;100.00
12219;BME280;6172;42.646;23.344;2022-12-18T12:21:02;95851.69;;;3.18;100.00
12219;BME280;6172;42.646;23.344;2022-12-18T12:23:37;95855.03;;;3.39;100.00
12219;BME280;6172;42.646;23.344;2022-12-18T12:26:12;95855.59;;;3.33;100.00
12219;BME280;6172;42.646;23.344;2022-12-18T12:28:57;95855.41;;;3.25;100.00
12219;BME280;6172;42.646;23.344;2022-12-18T12:31:35;95853.34;;;3.34;100.00
12219;BME280;6172;42.646;23.344;2022-12-18T12:34:16;95863.34;;;3.34;100.00
12219;BME280;6172;42.646;23.344;2022-12-18T12:36:57;95860.13;;;3.28;100.00
12219;BME280;6172;42.646;23.344;2022-12-18T12:39:31;95862.47;;;3.06;100.00
12219;BME280;6172;42.646;23.344;2022-12-18T12:42:02;95860.91;;;3.05;100.00
12219;BME280;6172;42.646;23.344;2022-12-18T12:44:51;95861.88;;;3.24;100.00
12219;BME280;6172;42.646;23.344;2022-12-18T12:47:23;95858.09;;;3.13;100.00
12219;BME280;6172;42.646;23.344;2022-12-18T12:49:54;95853.94;;;3.28;100.00
12219;BME280;6172;42.646;23.344;2022-12-18T12:52:28;95862.94;;;3.20;100.00
12219;BME280;6172;42.646;23.344;2022-12-18T12:54:58;95873.91;;;3.27;100.00
12219;BME280;6172;42.646;23.344;2022-12-18T12:57:33;95858.97;;;3.29;100.00
12219;BME280;6172;42.646;23.344;2022-12-18T13:00:11;95863.03;;;3.23;100.00
12219;BME280;6172;42.646;23.344;2022-12-18T13:02:44;95868.88;;;3.13;100.00
12219;BME280;6172;42.646;23.344;2022-12-18T13:05:19;95877.94;;;3.09;100.00
12219;BME280;6172;42.646;23.344;2022-12-18T13:07:54;95886.00;;;3.33;100.00
12219;BME280;6172;42.646;23.344;2022-12-18T13:10:34;95878.84;;;3.25;100.00
12219;BME280;6172;42.646;23.344;2022-12-18T13:13:05;95884.78;;;3.30;100.00
12219;BME280;6172;42.646;23.344;2022-12-18T13:15:36;95896.47;;;3.22;100.00
12219;BME280;6172;42.646;23.344;2022-12-18T13:18:17;95889.16;;;3.23;100.00
12219;BME280;6172;42.646;23.344;2022-12-18T13:20:46;95895.25;;;3.20;100.00